Wetterdaten: aktuell Donnerstag, 23.05.2024 11:30
Datum Zeit Temperatur Bodentemp. Luftfeuchte Luftdruck Niederschlag Windgeschw. Windrichtung Windrichtung Sonnenschein Nieder.dauer Evapotrans. Solarstrahl. Taupunkt Windchill Windböen
23.05.2024 11:30 16,6 °C 16,7 °C 89 % 1012,2 hPa 0,0 l/m² 7,2 km/h (2 Bft) W 270 ° 6 min 0 min 0 mm 396 W/m² 14,8 °C 16,6 °C 12,6 km/h (3 Bft)
23.05.2024 10:30 16,4 °C 16,7 °C 93 % 1011,6 hPa 0,0 l/m² 1,8 km/h (1 Bft) W 270 ° 3 min 0 min 0 mm 422 W/m² 15,3 °C 16,4 °C 3,6 km/h (1 Bft)
23.05.2024 09:30 15,0 °C 15,6 °C 97 % 1011,5 hPa 0,0 l/m² 1,8 km/h (1 Bft) S-SW 202 ° 0 min 0 min 0 mm 162 W/m² 14,5 °C 15,0 °C 3,6 km/h (1 Bft)
23.05.2024 08:30 14,6 °C 15,0 °C 97 % 1011,2 hPa 0,0 l/m² 0,0 km/h (0 Bft) SW 225 ° 0 min 0 min 0 mm 77 W/m² 14,1 °C 14,6 °C 1,8 km/h (1 Bft)
23.05.2024 07:30 14,2 °C 14,4 °C 97 % 1011,0 hPa 0,0 l/m² 0,0 km/h (0 Bft) N 0 ° 0 min 0 min 0 mm 98 W/m² 13,7 °C 14,2 °C 0,0 km/h (0 Bft)
23.05.2024 06:30 13,8 °C 13,3 °C 97 % 1010,5 hPa 0,0 l/m² 1,8 km/h (1 Bft) W 270 ° 0 min 18 min 0 mm 21 W/m² 13,3 °C 13,8 °C 3,6 km/h (1 Bft)
23.05.2024 05:30 13,8 °C 13,3 °C 97 % 1010,5 hPa 0,8 l/m² 3,6 km/h (1 Bft) W 270 ° 0 min 60 min 0 mm 11 W/m² 13,3 °C 13,8 °C 7,2 km/h (2 Bft)
23.05.2024 04:30 13,9 °C 13,9 °C 97 % 1010,4 hPa 0,4 l/m² 1,8 km/h (1 Bft) S 180 ° 0 min 27 min 0 mm 0 W/m² 13,4 °C 13,9 °C 1,8 km/h (1 Bft)
23.05.2024 03:30 13,9 °C 13,9 °C 97 % 1010,0 hPa 0,0 l/m² 1,8 km/h (1 Bft) W-SW 247 ° 0 min 15 min 0 mm 0 W/m² 13,4 °C 13,9 °C 3,6 km/h (1 Bft)
23.05.2024 02:30 13,9 °C 13,9 °C 97 % 1009,2 hPa 1,6 l/m² 5,4 km/h (1 Bft) W-NW 292 ° 0 min 60 min 0 mm 0 W/m² 13,4 °C 13,9 °C 9,0 km/h (2 Bft)
23.05.2024 01:30 13,9 °C 13,9 °C 97 % 1009,7 hPa 1,8 l/m² 3,6 km/h (1 Bft) SW 225 ° 0 min 60 min 0 mm 0 W/m² 13,4 °C 13,9 °C 10,8 km/h (2 Bft)
23.05.2024 00:30 14,2 °C 13,9 °C 97 % 1009,5 hPa 2,0 l/m² 1,8 km/h (1 Bft) SW 225 ° 0 min 60 min 0 mm 0 W/m² 13,7 °C 14,2 °C 1,8 km/h (1 Bft)
22.05.2024 23:30 14,4 °C 13,9 °C 97 % 1009,5 hPa 1,8 l/m² 0,0 km/h (0 Bft) S-SW 202 ° 0 min 60 min 0 mm 0 W/m² 13,9 °C 14,4 °C 1,8 km/h (1 Bft)
22.05.2024 22:30 14,6 °C 14,4 °C 97 % 1009,4 hPa 2,0 l/m² 0,0 km/h (0 Bft) NW 315 ° 0 min 60 min 0 mm 0 W/m² 14,1 °C 14,6 °C 1,8 km/h (1 Bft)
22.05.2024 21:30 14,9 °C 14,4 °C 96 % 1009,0 hPa 2,2 l/m² 1,8 km/h (1 Bft) S-SW 202 ° 0 min 60 min 0 mm 0 W/m² 14,3 °C 14,9 °C 3,6 km/h (1 Bft)
22.05.2024 20:30 15,1 °C 15,0 °C 96 % 1008,5 hPa 4,0 l/m² 1,8 km/h (1 Bft) S 180 ° 0 min 60 min 0 mm 5 W/m² 14,5 °C 15,1 °C 5,4 km/h (1 Bft)
22.05.2024 19:30 15,2 °C 15,0 °C 95 % 1008,0 hPa 5,0 l/m² 7,2 km/h (2 Bft) N-NW 337 ° 0 min 60 min 0 mm 11 W/m² 14,4 °C 15,2 °C 12,6 km/h (3 Bft)
22.05.2024 18:30 15,6 °C 15,0 °C 95 % 1007,9 hPa 9,6 l/m² 10,8 km/h (2 Bft) W-NW 292 ° 0 min 58 min 0 mm 9 W/m² 14,8 °C 15,6 °C 16,1 km/h (3 Bft)
22.05.2024 17:30 17,3 °C 16,1 °C 91 % 1007,3 hPa 0,6 l/m² 3,6 km/h (1 Bft) W-NW 292 ° 0 min 31 min 0 mm 7 W/m² 15,8 °C 17,3 °C 9,0 km/h (2 Bft)
22.05.2024 16:30 21,0 °C 20,6 °C 84 % 1006,8 hPa 0,0 l/m² 5,4 km/h (1 Bft) N-NW 337 ° 0 min 8 min 0 mm 111 W/m² 18,2 °C 21,0 °C 10,8 km/h (2 Bft)
22.05.2024 15:30 20,6 °C 20,6 °C 80 % 1006,9 hPa 0,0 l/m² 3,6 km/h (1 Bft) W 270 ° 5 min 0 min 0 mm 325 W/m² 17,0 °C 20,6 °C 7,2 km/h (2 Bft)
22.05.2024 14:30 20,3 °C 21,1 °C 83 % 1007,4 hPa 0,0 l/m² 1,8 km/h (1 Bft) O 90 ° 5 min 0 min 0 mm 225 W/m² 17,3 °C 20,3 °C 7,2 km/h (2 Bft)
22.05.2024 13:30 20,3 °C 22,8 °C 84 % 1007,4 hPa 0,0 l/m² 1,8 km/h (1 Bft) O 90 ° 7 min 0 min 0 mm 666 W/m² 17,5 °C 20,3 °C 7,2 km/h (2 Bft)
22.05.2024 12:30 18,4 °C 19,4 °C 90 % 1007,4 hPa 0,0 l/m² 7,2 km/h (2 Bft) O 90 ° 3 min 0 min 0 mm 383 W/m² 16,7 °C 18,4 °C 16,1 km/h (3 Bft)
22.05.2024 12:00 16,8 °C 17,8 °C 94 % 1007,3 hPa 0,0 l/m² 7,2 km/h (2 Bft) O 90 ° 0 min 0 min 0 mm 364 W/m² 15,8 °C 16,8 °C 10,8 km/h (2 Bft)
_ Min-Zeit 06:23 01:52 14:50 16:00 - 14:00 - - - - - - 06:23 06:23 14:09
Minimum _ 13,7 °C 13,3 °C 76 % 1006,7 hPa - 0,0 km/h (0 Bft) - - - - - - 13,2 °C 13,7 °C 0,0 km/h (0 Bft)
_ Max-Zeit 14:47 13:31 22:30 11:30 17:53 12:15 - - 12:13 16:23 14:00 14:47 16:29 14:47 13:24
Maximum _ 21,6 °C 23,9 °C 97 % 1012,2 hPa 0,6 l/m² 14,4 km/h
O (3 Bft)
- - 1 min 1 min 0 mm 937 W/m² 18,2 °C 21,6 °C 21,5 km/h
O (4 Bft)
Durchschnitt _ 15,9 °C 16,1 °C 93 % 1009,1 hPa #31,8 l/m² 3,8 km/h (1 Bft) SW - #9 min. #4:31 h #0,355 mm 117 W/m² 14,8 °C 15,9 °C 7,3 km/h (2 Bft)